Time;durP1;ratioP1;P1;durP2;ratioP2;P2;SDS_P1;SDS_P2;PMS_P1;PMS_P2;Temp;Humidity;BMP_temperature;BMP_pressure;BME280_temperature;BME280_humidity;BME280_pressure;Samples;Min_cycle;Max_cycle;Signal;HPM_P1;HPM_P2
2022/06/02 00:00:24;;;;;;;1.65;1.52;;;21.90;60.70;;;;;;4988158;28;20037;-40
2022/06/02 00:03:04;;;;;;;1.80;1.60;;;21.80;61.40;;;;;;4982996;28;20050;-40
2022/06/02 00:05:50;;;;;;;2.30;1.88;;;21.80;61.70;;;;;;4982828;28;20757;-40
2022/06/02 00:08:46;;;;;;;2.40;1.80;;;21.80;62.10;;;;;;4982508;28;20051;-40
2022/06/02 00:11:49;;;;;;;2.00;1.80;;;21.80;62.50;;;;;;4979453;28;20030;-40
2022/06/02 00:14:26;;;;;;;2.55;2.15;;;21.80;62.70;;;;;;4981832;28;20102;-41
2022/06/02 00:17:10;;;;;;;1.70;1.60;;;21.80;62.80;;;;;;4981954;28;20042;-40
2022/06/02 00:19:58;;;;;;;1.92;1.70;;;21.90;62.90;;;;;;4990958;28;20392;-39
2022/06/02 00:22:49;;;;;;;2.00;1.77;;;21.90;62.90;;;;;;4983577;28;20451;-40
2022/06/02 00:25:26;;;;;;;2.13;1.77;;;21.90;63.20;;;;;;4975456;28;20495;-39
2022/06/02 00:28:01;;;;;;;1.70;1.60;;;21.90;63.20;;;;;;4982160;28;20038;-41
2022/06/02 00:30:31;;;;;;;2.20;1.95;;;21.90;63.10;;;;;;4983296;28;20030;-39
2022/06/02 00:33:16;;;;;;;2.00;1.90;;;21.90;63.20;;;;;;4972225;28;20031;-45
2022/06/02 00:35:52;;;;;;;1.75;1.65;;;21.90;63.00;;;;;;5065235;28;20105;-46
2022/06/02 00:38:23;;;;;;;2.10;1.85;;;21.90;62.00;;;;;;5050710;28;20025;-43
2022/06/02 00:40:50;;;;;;;2.85;1.73;;;21.90;62.80;;;;;;5055015;28;20037;-42
2022/06/02 00:43:20;;;;;;;2.00;1.80;;;21.90;63.10;;;;;;5066353;28;20043;-43
2022/06/02 00:45:48;;;;;;;2.22;1.95;;;21.90;62.80;;;;;;5065486;28;20100;-43
2022/06/02 00:48:54;;;;;;;1.70;1.60;;;21.90;62.60;;;;;;5078375;28;20497;-45
2022/06/02 00:51:59;;;;;;;2.65;1.92;;;21.90;62.40;;;;;;5082696;28;20037;-43
2022/06/02 00:57:41;;;;;;;2.00;1.80;;;21.90;62.30;;;;;;5068243;28;20115;-42
2022/06/02 01:00:16;;;;;;;1.67;1.58;;;21.90;61.80;;;;;;5083426;28;20032;-41
2022/06/02 01:02:48;;;;;;;2.03;1.83;;;21.90;61.50;;;;;;5076222;28;20500;-43
2022/06/02 01:05:15;;;;;;;1.73;1.63;;;21.90;61.50;;;;;;5082474;28;20068;-41
2022/06/02 01:07:54;;;;;;;2.08;1.90;;;21.90;62.90;;;;;;5083782;28;20052;-47
2022/06/02 01:10:51;;;;;;;1.75;1.65;;;21.90;62.30;;;;;;5066580;28;20107;-44
2022/06/02 01:13:55;;;;;;;2.10;1.63;;;21.90;60.00;;;;;;5076835;28;20100;-47
2022/06/02 01:16:28;;;;;;;1.70;1.60;;;21.90;59.50;;;;;;5044277;28;20046;-44
2022/06/02 01:19:29;;;;;;;2.15;1.75;;;21.80;57.90;;;;;;5063906;28;20020;-45
2022/06/02 01:22:17;;;;;;;1.58;1.48;;;21.90;57.40;;;;;;5077832;28;20664;-43
2022/06/02 01:25:08;;;;;;;1.55;1.42;;;21.80;56.90;;;;;;5049300;28;20047;-42
2022/06/02 01:28:00;;;;;;;1.63;1.52;;;21.80;56.60;;;;;;5080200;28;20040;-45
2022/06/02 01:30:32;;;;;;;1.63;1.52;;;21.80;56.50;;;;;;5066376;28;20515;-43
2022/06/02 01:33:10;;;;;;;1.60;1.50;;;21.80;57.00;;;;;;5078533;28;20096;-43
2022/06/02 01:35:59;;;;;;;;;;;21.70;57.20;;;;;;5065650;28;20025;-44
2022/06/02 01:38:41;;;;;;;1.30;1.20;;;21.70;57.70;;;;;;5059750;28;19912;-43
2022/06/02 01:41:18;;;;;;;1.92;1.83;;;21.60;57.60;;;;;;5051436;28;20093;-44
2022/06/02 01:44:10;;;;;;;1.80;1.70;;;21.60;58.00;;;;;;5053070;28;20045;-43
2022/06/02 01:46:44;;;;;;;1.60;1.50;;;21.60;58.00;;;;;;4988494;28;20047;-44
2022/06/02 01:49:32;;;;;;;1.70;1.60;;;21.60;57.90;;;;;;4996820;28;20039;-45
2022/06/02 01:52:14;;;;;;;1.67;1.58;;;21.50;57.60;;;;;;4994070;28;20076;-44
2022/06/02 01:54:52;;;;;;;1.88;1.52;;;21.50;57.60;;;;;;4998893;28;20074;-43
2022/06/02 01:57:35;;;;;;;1.63;1.52;;;21.50;57.60;;;;;;4990123;28;20041;-43
2022/06/02 02:00:10;;;;;;;1.67;1.58;;;21.40;57.60;;;;;;4994687;28;20045;-46
2022/06/02 02:03:01;;;;;;;1.77;1.58;;;21.40;57.40;;;;;;4995389;28;20065;-45
2022/06/02 02:05:45;;;;;;;1.95;1.75;;;21.40;57.40;;;;;;4996615;28;20066;-43
2022/06/02 02:08:17;;;;;;;1.88;1.77;;;21.30;57.40;;;;;;4987404;28;20027;-46
2022/06/02 02:11:10;;;;;;;1.63;1.52;;;21.30;57.60;;;;;;4985574;28;20066;-46
2022/06/02 02:13:45;;;;;;;1.60;1.50;;;21.30;57.70;;;;;;4981589;28;20081;-47
2022/06/02 02:16:32;;;;;;;1.73;1.63;;;21.20;57.70;;;;;;4981446;28;20035;-43
2022/06/02 02:19:07;;;;;;;2.00;1.75;;;21.20;57.60;;;;;;4994656;28;20030;-44
2022/06/02 02:21:55;;;;;;;1.80;1.60;;;21.20;57.60;;;;;;4985072;28;20059;-43
2022/06/02 02:24:41;;;;;;;1.50;1.40;;;21.20;57.70;;;;;;5067512;28;20053;-42
2022/06/02 02:27:28;;;;;;;1.73;1.63;;;21.10;57.50;;;;;;5081439;28;20036;-41
2022/06/02 02:30:12;;;;;;;1.83;1.73;;;21.10;57.60;;;;;;5060815;28;20062;-42
2022/06/02 02:32:50;;;;;;;1.88;1.58;;;21.00;57.50;;;;;;5050229;28;20032;-42
2022/06/02 02:35:44;;;;;;;3.22;1.58;;;21.00;57.30;;;;;;5046810;28;20104;-43
2022/06/02 02:38:13;;;;;;;2.60;1.60;;;21.00;57.40;;;;;;5052827;28;20032;-42
2022/06/02 02:40:54;;;;;;;1.88;1.70;;;20.90;57.50;;;;;;5061717;28;20107;-43
2022/06/02 02:43:45;;;;;;;1.67;1.58;;;20.90;57.50;;;;;;5050506;28;20489;-43
2022/06/02 02:46:30;;;;;;;1.95;1.70;;;20.90;57.60;;;;;;5053079;28;20028;-45
2022/06/02 02:49:00;;;;;;;2.20;2.00;;;20.90;57.40;;;;;;5056774;28;20029;-39
2022/06/02 02:51:55;;;;;;;1.83;1.60;;;20.80;57.80;;;;;;5079890;28;20024;-41
2022/06/02 02:54:38;;;;;;;1.90;1.70;;;20.80;58.30;;;;;;5053524;28;20538;-42
2022/06/02 02:57:24;;;;;;;1.70;1.55;;;20.80;59.00;;;;;;5074375;28;20108;-40
2022/06/02 03:00:22;;;;;;;3.88;1.55;;;20.80;58.90;;;;;;5077359;28;20032;-39
2022/06/02 03:03:16;;;;;;;1.88;1.67;;;20.80;58.80;;;;;;5060952;28;20040;-39
2022/06/02 03:06:13;;;;;;;2.33;1.90;;;20.80;58.90;;;;;;5079475;28;20028;-39
2022/06/02 03:08:47;;;;;;;2.05;1.95;;;20.80;59.10;;;;;;5059177;28;20029;-42
2022/06/02 03:11:42;;;;;;;2.08;1.88;;;20.80;59.20;;;;;;5072456;28;20059;-40
2022/06/02 03:14:36;;;;;;;2.08;1.60;;;20.80;59.40;;;;;;5056468;28;20025;-38
2022/06/02 03:17:13;;;;;;;3.42;1.90;;;20.80;59.50;;;;;;5047078;28;20036;-38
2022/06/02 03:20:00;;;;;;;1.55;1.45;;;20.80;59.60;;;;;;5080365;28;20484;-39
2022/06/02 03:23:06;;;;;;;3.28;1.67;;;20.80;59.70;;;;;;5082361;28;20508;-39
2022/06/02 03:25:41;;;;;;;3.90;1.67;;;20.80;59.80;;;;;;5079209;28;20111;-39
2022/06/02 03:28:29;;;;;;;2.28;1.70;;;20.80;59.90;;;;;;5072282;28;20581;-38
2022/06/02 03:31:06;;;;;;;7.20;1.70;;;20.90;60.20;;;;;;5080712;28;20028;-39
2022/06/02 03:33:51;;;;;;;2.15;1.83;;;20.90;60.30;;;;;;5080432;28;20028;-39
2022/06/02 03:36:25;;;;;;;2.30;2.03;;;20.90;60.30;;;;;;5082754;28;20413;-40
2022/06/02 03:39:02;;;;;;;3.05;1.55;;;20.90;60.50;;;;;;5081789;28;20028;-39
2022/06/02 03:42:06;;;;;;;1.90;1.70;;;20.90;60.60;;;;;;5080866;28;20036;-39
2022/06/02 03:44:50;;;;;;;1.60;1.50;;;20.90;60.70;;;;;;5058033;28;20048;-40
2022/06/02 03:47:46;;;;;;;1.70;1.60;;;20.90;60.80;;;;;;5075559;28;20057;-39
2022/06/02 03:50:44;;;;;;;1.85;1.70;;;20.90;60.80;;;;;;5073851;28;20037;-39
2022/06/02 03:53:37;;;;;;;1.63;1.52;;;20.90;61.10;;;;;;5053660;28;20031;-39
2022/06/02 03:56:38;;;;;;;2.90;1.70;;;21.00;61.10;;;;;;5064114;28;20139;-39
2022/06/02 03:59:55;;;;;;;1.77;1.65;;;21.00;61.10;;;;;;5060714;28;20033;-39
2022/06/02 04:02:31;;;;;;;2.08;1.48;;;21.00;61.10;;;;;;5021570;28;20055;-38
2022/06/02 04:05:21;;;;;;;2.13;1.67;;;21.00;61.10;;;;;;5005629;28;20092;-39
2022/06/02 04:08:13;;;;;;;1.60;1.50;;;21.00;61.10;;;;;;5022047;28;20041;-39
2022/06/02 04:11:05;;;;;;;1.90;1.48;;;21.10;61.20;;;;;;5006052;28;20545;-38
2022/06/02 04:13:56;;;;;;;1.58;1.30;;;21.10;61.20;;;;;;5009921;28;20124;-38
2022/06/02 04:17:03;;;;;;;1.67;1.55;;;21.10;61.30;;;;;;5019037;28;20564;-39
2022/06/02 04:22:55;;;;;;;1.50;1.40;;;21.10;61.40;;;;;;4968248;28;20054;-38
2022/06/02 04:25:26;;;;;;;2.25;1.30;;;21.10;61.50;;;;;;4929707;29;20079;-39
2022/06/02 04:28:17;;;;;;;1.50;1.40;;;21.10;61.50;;;;;;4963854;28;20090;-38
2022/06/02 04:31:12;;;;;;;1.55;1.45;;;21.20;61.70;;;;;;4955745;28;20082;-39
2022/06/02 04:33:52;;;;;;;1.33;1.23;;;21.20;61.70;;;;;;4946635;28;20063;-39
2022/06/02 04:36:28;;;;;;;1.55;1.35;;;21.20;61.80;;;;;;4973280;28;20044;-39
2022/06/02 04:39:26;;;;;;;1.60;1.50;;;21.20;62.00;;;;;;4991997;28;20025;-38
2022/06/02 04:42:06;;;;;;;1.58;1.30;;;21.20;61.90;;;;;;4987087;28;20030;-38
2022/06/02 04:44:50;;;;;;;1.30;1.20;;;21.20;62.00;;;;;;4987478;28;20085;-38
2022/06/02 04:47:58;;;;;;;1.48;1.30;;;21.30;62.10;;;;;;5008411;28;20033;-39
2022/06/02 04:50:52;;;;;;;1.30;1.20;;;21.30;62.10;;;;;;5037832;28;20040;-39
2022/06/02 04:53:35;;;;;;;1.50;1.40;;;21.30;62.20;;;;;;5064582;28;20060;-39
2022/06/02 04:56:22;;;;;;;1.50;1.40;;;21.30;62.30;;;;;;5042584;28;20021;-39
2022/06/02 04:59:03;;;;;;;1.67;1.40;;;21.30;62.30;;;;;;5076038;28;20060;-39
2022/06/02 05:02:03;;;;;;;1.40;1.30;;;21.30;62.50;;;;;;5075867;28;20062;-39
2022/06/02 05:04:53;;;;;;;1.40;1.30;;;21.30;62.50;;;;;;5063882;28;20130;-39
2022/06/02 05:07:31;;;;;;;1.35;1.25;;;21.40;62.40;;;;;;5084152;28;20055;-39
2022/06/02 05:10:11;;;;;;;1.33;1.23;;;21.40;62.40;;;;;;5078476;28;20036;-39
2022/06/02 05:12:45;;;;;;;1.52;1.35;;;21.40;62.30;;;;;;5058859;28;20135;-39
2022/06/02 05:15:42;;;;;;;1.40;1.30;;;21.40;62.30;;;;;;5089284;28;20036;-39
2022/06/02 05:18:39;;;;;;;1.20;1.10;;;21.40;62.30;;;;;;5082765;28;20060;-39
2022/06/02 05:21:34;;;;;;;1.33;1.20;;;21.40;62.20;;;;;;5077260;28;20049;-39
2022/06/02 05:24:06;;;;;;;1.35;1.20;;;21.50;62.30;;;;;;5084550;28;20043;-38
2022/06/02 05:27:00;;;;;;;1.25;1.15;;;21.50;62.30;;;;;;5068120;28;20029;-38
2022/06/02 05:30:08;;;;;;;1.42;1.20;;;21.50;62.30;;;;;;5080602;28;20120;-39
2022/06/02 05:32:52;;;;;;;1.25;1.15;;;21.50;62.30;;;;;;4969935;28;20118;-39
2022/06/02 05:35:51;;;;;;;1.50;1.40;;;21.50;62.40;;;;;;4974153;28;20094;-39
2022/06/02 05:38:24;;;;;;;1.30;1.20;;;21.50;62.40;;;;;;4961670;28;20039;-39
2022/06/02 05:41:11;;;;;;;1.40;1.30;;;21.50;62.30;;;;;;4961063;28;20515;-39
2022/06/02 05:43:55;;;;;;;2.77;1.30;;;21.50;62.40;;;;;;4976232;28;20042;-39
2022/06/02 05:46:35;;;;;;;1.40;1.30;;;21.50;62.30;;;;;;4967487;28;20049;-39
2022/06/02 05:49:23;;;;;;;1.63;1.50;;;21.50;62.30;;;;;;4979022;28;20043;-39
2022/06/02 05:52:17;;;;;;;1.45;1.35;;;21.60;62.40;;;;;;4979995;28;20071;-39
2022/06/02 05:54:48;;;;;;;1.67;1.15;;;21.60;62.30;;;;;;4980523;28;20035;-39
2022/06/02 05:57:29;;;;;;;1.48;1.10;;;21.60;62.00;;;;;;4980731;28;20098;-39
2022/06/02 06:00:11;;;;;;;1.40;1.30;;;21.60;62.00;;;;;;4965498;28;20023;-39
2022/06/02 06:03:01;;;;;;;1.30;1.20;;;21.60;62.10;;;;;;4980394;28;20216;-39
2022/06/02 06:05:33;;;;;;;1.50;1.40;;;21.60;62.00;;;;;;4957086;28;20781;-39
2022/06/02 06:08:16;;;;;;;1.58;1.10;;;21.60;62.00;;;;;;5004309;28;20478;-39
2022/06/02 06:10:52;;;;;;;1.98;1.30;;;21.60;62.00;;;;;;5059939;28;20036;-39
2022/06/02 06:13:24;;;;;;;1.25;1.15;;;21.60;62.00;;;;;;5073139;28;20036;-38
2022/06/02 06:16:39;;;;;;;1.38;1.23;;;21.60;61.90;;;;;;5078823;28;20035;-39
2022/06/02 06:19:27;;;;;;;1.65;1.40;;;21.70;62.10;;;;;;5074509;28;20094;-38
2022/06/02 06:21:56;;;;;;;1.20;1.10;;;21.70;62.10;;;;;;5082701;28;20509;-39
2022/06/02 06:24:43;;;;;;;1.20;1.10;;;21.70;62.10;;;;;;5074257;28;20048;-38
2022/06/02 06:27:18;;;;;;;1.27;1.17;;;21.70;62.20;;;;;;5065046;28;20025;-39
2022/06/02 06:30:08;;;;;;;1.30;1.20;;;21.70;62.20;;;;;;5071940;28;20053;-39
2022/06/02 06:33:06;;;;;;;1.95;1.40;;;21.70;63.10;;;;;;5061139;28;20055;-39
2022/06/02 06:36:10;;;;;;;1.33;1.23;;;21.70;62.40;;;;;;5011108;28;20050;-39
2022/06/02 06:38:50;;;;;;;1.38;1.27;;;21.70;62.30;;;;;;4996373;28;20142;-39
2022/06/02 06:41:50;;;;;;;1.52;1.42;;;21.70;62.40;;;;;;5028450;28;20035;-39
2022/06/02 06:44:21;;;;;;;1.25;1.15;;;21.80;62.40;;;;;;5014607;28;20591;-39
2022/06/02 06:47:07;;;;;;;1.40;1.30;;;21.70;62.30;;;;;;4999683;28;20889;-39
2022/06/02 06:50:07;;;;;;;1.33;1.23;;;21.80;62.30;;;;;;5003356;28;20030;-39
2022/06/02 06:52:35;;;;;;;1.40;1.30;;;21.80;62.20;;;;;;5007654;28;20029;-40
2022/06/02 06:55:23;;;;;;;1.30;1.20;;;21.80;62.20;;;;;;5016861;28;20841;-39
2022/06/02 06:57:50;;;;;;;1.30;1.20;;;21.80;62.20;;;;;;4987281;28;20153;-39
2022/06/02 07:00:29;;;;;;;1.20;1.08;;;21.80;62.10;;;;;;5016078;28;20088;-38
2022/06/02 07:03:16;;;;;;;1.15;1.05;;;21.80;62.10;;;;;;5001644;28;20033;-38
2022/06/02 07:05:47;;;;;;;1.27;1.17;;;21.80;62.10;;;;;;5021795;28;20081;-39
2022/06/02 07:08:34;;;;;;;1.35;1.20;;;21.80;62.10;;;;;;5012474;28;20022;-39
2022/06/02 07:14:13;;;;;;;1.20;1.10;;;21.80;61.90;;;;;;5077671;28;20031;-39
2022/06/02 07:16:55;;;;;;;1.27;1.17;;;21.90;62.00;;;;;;5062831;28;20039;-39
2022/06/02 07:20:00;;;;;;;1.80;1.30;;;21.90;62.00;;;;;;5069081;28;20052;-39
2022/06/02 07:22:42;;;;;;;1.20;1.10;;;21.90;61.90;;;;;;5069745;28;20037;-38
2022/06/02 07:25:53;;;;;;;2.03;1.38;;;21.90;62.00;;;;;;5078509;28;20073;-39
2022/06/02 07:28:31;;;;;;;1.35;1.10;;;21.90;61.90;;;;;;5064511;28;20033;-38
2022/06/02 07:31:19;;;;;;;1.25;1.05;;;21.90;61.90;;;;;;5080290;28;20060;-38
2022/06/02 07:34:12;;;;;;;1.30;1.20;;;21.90;61.80;;;;;;5078057;28;20069;-40
2022/06/02 07:36:51;;;;;;;1.63;1.40;;;21.90;61.80;;;;;;5083179;28;20035;-39
2022/06/02 07:39:54;;;;;;;1.75;1.50;;;21.90;61.80;;;;;;5060563;28;20048;-39
2022/06/02 07:42:52;;;;;;;1.52;1.38;;;21.90;61.90;;;;;;5085481;28;20087;-39
2022/06/02 07:45:51;;;;;;;1.20;0.93;;;21.90;61.90;;;;;;5040586;28;20059;-39
2022/06/02 07:48:26;;;;;;;1.40;1.30;;;21.90;62.00;;;;;;5082700;28;20033;-40
2022/06/02 07:51:10;;;;;;;1.27;1.17;;;21.90;62.10;;;;;;5084368;28;20021;-42
2022/06/02 07:54:02;;;;;;;1.40;1.30;;;21.90;62.20;;;;;;5061846;28;20032;-42
2022/06/02 07:56:52;;;;;;;1.98;1.42;;;21.90;62.10;;;;;;5024447;28;20175;-39
2022/06/02 07:59:34;;;;;;;1.55;1.27;;;21.90;62.00;;;;;;5081829;28;20033;-39
2022/06/02 08:02:18;;;;;;;1.35;1.23;;;22.00;62.20;;;;;;5055307;28;20021;-39
2022/06/02 08:05:09;;;;;;;1.38;1.27;;;22.00;62.10;;;;;;5074455;28;20037;-39
2022/06/02 08:07:38;;;;;;;1.45;1.35;;;22.00;62.30;;;;;;5078238;28;20029;-40
2022/06/02 08:10:13;;;;;;;1.40;1.30;;;22.00;62.10;;;;;;5080923;28;20029;-41
2022/06/02 08:12:52;;;;;;;1.50;1.40;;;22.00;62.30;;;;;;5045166;28;20059;-46
2022/06/02 08:15:26;;;;;;;1.50;1.38;;;22.00;62.20;;;;;;5057420;28;20024;-40
2022/06/02 08:17:58;;;;;;;1.40;1.30;;;22.00;62.20;;;;;;5057348;28;20032;-43
2022/06/02 08:20:29;;;;;;;1.40;1.30;;;22.00;62.20;;;;;;5081767;28;20052;-39
2022/06/02 08:23:00;;;;;;;1.90;1.13;;;22.00;62.10;;;;;;5088144;28;20489;-38
2022/06/02 08:25:29;;;;;;;1.52;1.38;;;22.00;62.10;;;;;;5070668;28;20046;-38
2022/06/02 08:28:32;;;;;;;1.60;1.42;;;22.10;62.00;;;;;;5066526;28;20119;-38
2022/06/02 08:31:36;;;;;;;1.73;1.63;;;22.00;61.70;;;;;;5071472;28;20596;-38
2022/06/02 08:34:14;;;;;;;2.30;1.60;;;22.00;61.20;;;;;;5077996;28;20511;-38
2022/06/02 08:36:47;;;;;;;2.60;1.70;;;22.10;60.50;;;;;;5067691;28;20853;-38
2022/06/02 08:39:40;;;;;;;2.45;2.05;;;22.00;60.00;;;;;;5072535;28;20107;-38
2022/06/02 08:42:38;;;;;;;3.28;2.25;;;22.10;59.60;;;;;;5075243;28;20031;-37
2022/06/02 08:45:22;;;;;;;2.60;2.17;;;22.10;59.30;;;;;;5066017;28;20041;-37
2022/06/02 08:48:12;;;;;;;2.33;1.92;;;22.00;58.80;;;;;;5063265;28;20044;-37
2022/06/02 08:50:47;;;;;;;3.78;1.95;;;22.00;58.70;;;;;;5079413;28;20064;-38
2022/06/02 08:53:47;;;;;;;3.63;2.10;;;22.00;58.40;;;;;;5071446;28;20033;-38
2022/06/02 08:56:43;;;;;;;2.83;1.90;;;22.00;58.30;;;;;;5070264;28;20024;-38
2022/06/02 08:59:34;;;;;;;2.05;1.92;;;21.90;57.90;;;;;;5044629;28;20040;-38
2022/06/02 09:02:34;;;;;;;2.08;1.90;;;21.90;57.70;;;;;;5069048;28;20062;-38
2022/06/02 09:05:37;;;;;;;2.33;1.70;;;21.90;57.60;;;;;;5068312;28;20083;-38
2022/06/02 09:08:29;;;;;;;2.40;2.20;;;21.90;57.50;;;;;;5054841;28;20028;-37
2022/06/02 09:11:16;;;;;;;2.15;1.95;;;21.80;57.30;;;;;;5069350;28;20033;-38
2022/06/02 09:14:08;;;;;;;2.35;2.15;;;21.80;57.20;;;;;;5056720;28;20553;-37
2022/06/02 09:16:40;;;;;;;2.40;2.20;;;21.70;57.00;;;;;;5047980;28;20106;-37
2022/06/02 09:19:34;;;;;;;2.03;1.70;;;21.70;57.00;;;;;;5084580;28;20036;-38
2022/06/02 09:22:16;;;;;;;2.20;2.00;;;21.60;57.10;;;;;;5057895;28;20101;-38
2022/06/02 09:24:56;;;;;;;2.17;1.90;;;21.60;57.20;;;;;;5083752;28;20028;-37
2022/06/02 09:27:45;;;;;;;3.22;1.63;;;21.60;57.20;;;;;;5053775;28;20135;-38
2022/06/02 09:30:30;;;;;;;2.83;2.25;;;21.60;57.20;;;;;;5056189;28;20036;-38
2022/06/02 09:33:33;;;;;;;2.17;1.83;;;21.50;57.10;;;;;;5079716;28;20084;-38
2022/06/02 09:36:26;;;;;;;2.00;1.90;;;21.50;57.00;;;;;;5064848;28;20032;-38
2022/06/02 09:39:03;;;;;;;2.28;2.00;;;21.50;57.00;;;;;;5078451;28;20032;-38
2022/06/02 09:41:41;;;;;;;;;;;21.40;57.10;;;;;;5067132;28;20059;-38
2022/06/02 09:44:23;;;;;;;2.33;2.13;;;21.40;57.30;;;;;;5072159;28;19924;-38
2022/06/02 09:46:55;;;;;;;2.25;2.00;;;21.30;57.50;;;;;;5082029;28;20032;-38
2022/06/02 09:49:51;;;;;;;2.58;1.90;;;21.30;57.40;;;;;;5064307;28;20039;-38
2022/06/02 09:52:36;;;;;;;3.58;2.15;;;21.30;57.30;;;;;;5073839;28;20028;-38
2022/06/02 09:55:38;;;;;;;2.05;1.90;;;21.20;57.30;;;;;;5070349;28;20054;-38
2022/06/02 09:58:13;;;;;;;2.10;1.90;;;21.20;57.30;;;;;;5074685;28;20025;-38
2022/06/02 10:00:57;;;;;;;2.00;1.80;;;21.20;57.40;;;;;;5062651;28;20108;-38
2022/06/02 10:03:35;;;;;;;2.00;1.80;;;21.20;57.50;;;;;;5074286;28;20060;-38
2022/06/02 10:06:15;;;;;;;2.28;2.08;;;21.20;57.60;;;;;;5082878;28;20037;-38
2022/06/02 10:09:08;;;;;;;2.00;1.80;;;21.10;57.60;;;;;;5073301;28;20052;-37
2022/06/02 10:12:54;;;;;;;2.33;1.92;;;21.10;57.70;;;;;;5058014;28;20021;-38
2022/06/02 10:14:55;;;;;;;2.35;1.98;;;21.10;57.90;;;;;;5063245;28;20560;-37
2022/06/02 10:17:59;;;;;;;2.10;1.90;;;21.10;58.20;;;;;;5057546;28;20032;-37
2022/06/02 10:20:39;;;;;;;2.13;1.92;;;21.10;58.50;;;;;;5076817;28;20109;-38
2022/06/02 10:23:32;;;;;;;2.50;1.65;;;21.10;58.70;;;;;;5082673;28;20056;-38
2022/06/02 10:26:22;;;;;;;4.57;2.30;;;21.10;58.70;;;;;;5073054;28;20039;-39
2022/06/02 10:29:13;;;;;;;10.63;2.38;;;21.00;58.80;;;;;;5063137;28;20032;-43
2022/06/02 10:31:58;;;;;;;3.20;2.10;;;21.10;58.60;;;;;;5058699;28;20084;-40
2022/06/02 10:34:56;;;;;;;4.47;2.22;;;21.10;58.60;;;;;;5077792;28;20096;-39
2022/06/02 10:37:35;;;;;;;5.85;2.17;;;21.10;58.60;;;;;;5076228;28;20025;-41
2022/06/02 10:40:01;;;;;;;5.65;2.25;;;21.00;58.60;;;;;;5057512;28;20028;-40
2022/06/02 10:43:06;;;;;;;3.38;2.70;;;21.00;58.70;;;;;;5068164;28;20029;-40
2022/06/02 10:45:53;;;;;;;6.78;2.40;;;21.10;59.10;;;;;;5062791;28;20049;-39
2022/06/02 10:48:29;;;;;;;2.83;2.08;;;21.00;59.00;;;;;;5071361;28;20035;-42
2022/06/02 10:51:06;;;;;;;5.10;2.15;;;21.00;59.00;;;;;;5059820;28;20062;-37
2022/06/02 10:53:51;;;;;;;13.50;2.30;;;21.00;59.30;;;;;;5068441;28;20024;-35
2022/06/02 10:56:28;;;;;;;6.45;2.28;;;21.00;59.80;;;;;;5078591;28;20025;-37
2022/06/02 10:59:33;;;;;;;9.70;2.67;;;21.00;59.70;;;;;;5062758;28;20028;-37
2022/06/02 11:02:28;;;;;;;5.90;2.47;;;21.00;59.50;;;;;;5066509;28;20029;-37
2022/06/02 11:05:03;;;;;;;7.10;2.30;;;21.00;59.40;;;;;;5067360;28;20033;-36
2022/06/02 11:07:36;;;;;;;6.57;2.33;;;21.00;59.30;;;;;;5081498;28;20076;-37
2022/06/02 11:10:31;;;;;;;6.97;2.80;;;21.00;59.30;;;;;;5063633;28;20467;-36
2022/06/02 11:13:32;;;;;;;14.40;2.90;;;21.00;59.20;;;;;;5064074;28;20033;-36
2022/06/02 11:16:26;;;;;;;4.70;2.42;;;21.00;59.20;;;;;;5064890;28;20406;-37
2022/06/02 11:19:01;;;;;;;3.70;2.13;;;21.00;59.10;;;;;;5063292;28;20574;-36
2022/06/02 11:21:33;;;;;;;4.10;2.22;;;21.00;59.10;;;;;;5080399;28;20044;-36
2022/06/02 11:24:29;;;;;;;6.53;2.33;;;21.00;59.00;;;;;;5063075;28;20037;-37
2022/06/02 11:27:32;;;;;;;5.57;2.50;;;21.00;59.00;;;;;;5063098;28;20039;-37
2022/06/02 11:30:17;;;;;;;4.18;2.42;;;21.00;59.00;;;;;;5082551;28;20035;-36
2022/06/02 11:33:00;;;;;;;5.28;2.40;;;21.00;59.00;;;;;;5082022;28;20056;-36
2022/06/02 11:35:33;;;;;;;3.20;2.40;;;21.00;59.00;;;;;;5064310;28;20040;-37
2022/06/02 11:38:26;;;;;;;3.72;2.17;;;21.00;59.00;;;;;;5079793;28;20032;-37
2022/06/02 11:41:26;;;;;;;3.45;2.40;;;21.00;59.00;;;;;;5074214;28;20025;-37
2022/06/02 11:44:06;;;;;;;3.85;2.35;;;21.00;59.00;;;;;;5065912;28;20033;-37
2022/06/02 11:46:41;;;;;;;6.05;2.40;;;21.00;58.90;;;;;;5064290;28;20691;-37
2022/06/02 11:49:35;;;;;;;3.35;2.20;;;21.00;58.90;;;;;;5064125;28;20123;-36
2022/06/02 11:52:13;;;;;;;5.53;2.05;;;21.00;58.90;;;;;;5077465;28;20036;-37
2022/06/02 11:54:58;;;;;;;3.05;2.13;;;21.00;58.90;;;;;;5079886;28;20107;-37
2022/06/02 11:57:44;;;;;;;3.65;2.33;;;21.00;58.90;;;;;;5065814;28;20024;-39
2022/06/02 12:00:41;;;;;;;3.58;2.30;;;21.00;58.90;;;;;;5060915;28;20051;-37
2022/06/02 12:03:41;;;;;;;2.55;2.13;;;21.00;58.90;;;;;;5061685;28;20122;-37
2022/06/02 12:06:13;;;;;;;2.83;2.00;;;21.00;58.90;;;;;;5081160;28;20032;-37
2022/06/02 12:09:07;;;;;;;2.97;2.30;;;21.00;58.90;;;;;;5064500;28;20116;-37
2022/06/02 12:12:04;;;;;;;3.00;2.10;;;21.00;58.90;;;;;;5079061;28;20111;-37
2022/06/02 12:15:07;;;;;;;2.55;1.92;;;21.00;58.90;;;;;;5079479;28;20035;-37
2022/06/02 12:17:50;;;;;;;3.53;2.00;;;21.00;58.90;;;;;;5081955;28;20060;-37
2022/06/02 12:20:36;;;;;;;3.03;2.20;;;21.00;58.90;;;;;;5059898;28;20045;-37
2022/06/02 12:23:19;;;;;;;2.70;1.83;;;21.00;58.80;;;;;;5049420;28;20033;-37
2022/06/02 12:25:56;;;;;;;2.58;1.83;;;21.00;58.80;;;;;;5064016;28;20029;-37
2022/06/02 12:28:49;;;;;;;3.15;2.17;;;21.00;58.70;;;;;;5054246;28;20060;-37
2022/06/02 12:31:40;;;;;;;4.20;1.98;;;21.00;58.80;;;;;;5061768;28;20025;-37
2022/06/02 12:34:45;;;;;;;2.58;2.00;;;21.00;58.70;;;;;;5049965;28;20528;-37
2022/06/02 12:37:48;;;;;;;3.38;2.08;;;21.00;58.70;;;;;;5064666;28;20037;-37
2022/06/02 12:40:36;;;;;;;2.53;1.88;;;21.00;58.70;;;;;;5055221;28;20032;-37
2022/06/02 12:43:22;;;;;;;2.38;1.85;;;21.00;58.70;;;;;;5052604;28;20037;-37
2022/06/02 12:45:51;;;;;;;2.33;1.83;;;21.00;58.70;;;;;;5063240;28;20116;-37
2022/06/02 12:48:50;;;;;;;2.72;1.90;;;21.00;58.70;;;;;;5065003;28;20097;-37
2022/06/02 12:51:31;;;;;;;4.40;2.42;;;21.00;58.70;;;;;;5063583;28;20082;-37
2022/06/02 12:54:19;;;;;;;4.25;2.30;;;21.00;58.80;;;;;;5043219;28;20033;-37
2022/06/02 12:57:21;;;;;;;3.13;1.88;;;21.00;58.90;;;;;;5046965;28;20029;-37
2022/06/02 13:00:18;;;;;;;2.40;2.10;;;21.00;59.00;;;;;;5058235;28;20100;-37
2022/06/02 13:03:05;;;;;;;2.67;2.22;;;21.00;59.10;;;;;;5048285;28;20021;-37
2022/06/02 13:05:58;;;;;;;2.65;2.28;;;21.00;59.20;;;;;;5066712;28;20036;-37
2022/06/02 13:09:02;;;;;;;2.30;2.10;;;21.00;59.30;;;;;;5061621;28;20045;-37
2022/06/02 13:11:43;;;;;;;1.92;1.80;;;21.00;59.40;;;;;;5062704;28;20112;-37
2022/06/02 13:14:40;;;;;;;3.97;1.80;;;21.00;59.60;;;;;;5063553;28;20033;-37
2022/06/02 13:17:25;;;;;;;2.53;2.15;;;21.10;59.70;;;;;;5064326;28;20024;-37
2022/06/02 13:20:06;;;;;;;2.63;1.83;;;21.10;59.90;;;;;;5064293;28;20133;-38
2022/06/02 13:23:04;;;;;;;2.28;2.08;;;21.10;60.10;;;;;;5082871;28;20024;-37
2022/06/02 13:25:53;;;;;;;2.53;2.08;;;21.10;60.30;;;;;;5063492;28;20044;-37
2022/06/02 13:28:43;;;;;;;4.05;1.98;;;21.10;60.50;;;;;;5066944;28;20036;-37
2022/06/02 13:31:46;;;;;;;2.88;1.98;;;21.10;60.70;;;;;;5078767;28;20024;-37
2022/06/02 13:34:33;;;;;;;2.15;1.77;;;21.10;60.90;;;;;;5000099;28;20080;-37
2022/06/02 13:37:28;;;;;;;3.50;2.40;;;21.10;61.20;;;;;;5001797;28;20030;-37
2022/06/02 13:40:36;;;;;;;4.75;2.35;;;21.20;61.50;;;;;;5014474;28;20046;-37
2022/06/02 13:43:07;;;;;;;2.03;1.80;;;21.20;61.70;;;;;;5008127;28;20034;-36
2022/06/02 13:45:57;;;;;;;2.38;2.10;;;21.20;62.20;;;;;;5019865;28;20050;-36
2022/06/02 13:48:29;;;;;;;3.38;2.08;;;21.20;62.30;;;;;;5020469;28;20057;-37
2022/06/02 13:51:10;;;;;;;3.45;2.17;;;21.20;62.60;;;;;;5005153;28;20039;-37
2022/06/02 14:00:20;;;;;;;2.92;1.83;;;21.30;63.50;;;;;;5008266;28;20066;-37
2022/06/02 14:03:11;;;;;;;2.67;2.42;;;21.30;63.30;;;;;;5020248;28;20030;-37
2022/06/02 14:05:50;;;;;;;2.45;2.25;;;21.30;62.30;;;;;;5020521;28;20080;-36
2022/06/02 14:08:40;;;;;;;3.35;2.40;;;21.30;61.90;;;;;;5004564;28;20033;-36
2022/06/02 14:11:42;;;;;;;2.58;2.38;;;21.30;61.60;;;;;;5017476;28;20069;-37
2022/06/02 14:14:44;;;;;;;4.70;3.03;;;21.30;63.30;;;;;;5020110;28;20026;-37
2022/06/02 14:17:21;;;;;;;3.53;2.78;;;21.30;63.90;;;;;;5028521;28;20041;-37
2022/06/02 14:20:05;;;;;;;3.60;2.60;;;21.40;62.90;;;;;;5024553;28;20038;-37
2022/06/02 14:22:48;;;;;;;3.33;3.03;;;21.40;62.30;;;;;;5020532;28;20038;-37
2022/06/02 14:25:37;;;;;;;3.10;2.80;;;21.40;62.80;;;;;;5007507;28;20041;-37
2022/06/02 14:28:21;;;;;;;4.32;2.90;;;21.40;61.70;;;;;;4992230;28;20029;-37
2022/06/02 14:30:56;;;;;;;2.83;2.55;;;21.40;61.30;;;;;;5038511;28;20099;-37
2022/06/02 14:33:35;;;;;;;3.38;2.70;;;21.40;63.30;;;;;;5005030;28;20033;-39
2022/06/02 14:36:08;;;;;;;3.45;3.10;;;21.40;64.70;;;;;;5045001;28;20060;-37
2022/06/02 14:39:11;;;;;;;3.55;3.17;;;21.40;62.50;;;;;;5068782;28;20059;-37
2022/06/02 14:42:15;;;;;;;3.50;3.00;;;21.40;62.30;;;;;;5062548;28;20032;-37